Time;durP1;ratioP1;P1;durP2;ratioP2;P2;SDS_P1;SDS_P2;PMS_P1;PMS_P2;Temp;Humidity;BMP_temperature;BMP_pressure;BME280_temperature;BME280_humidity;BME280_pressure;Samples;Min_cycle;Max_cycle;Signal;HPM_P1;HPM_P2
2023/03/13 00:00:34;;;;;;;31.70;6.73;;;7.70;99.90;;;6.78;87.96;99846.91;5054140;28;20635;-74
2023/03/13 00:03:07;;;;;;;27.37;6.37;;;7.60;99.90;;;6.85;88.07;99847.94;5054392;28;20211;-74
2023/03/13 00:05:39;;;;;;;26.97;7.00;;;7.70;99.90;;;6.77;88.49;99842.56;5054493;28;20198;-73
2023/03/13 00:08:11;;;;;;;28.23;6.33;;;7.60;99.90;;;6.69;88.19;99838.03;5054212;28;20194;-73
2023/03/13 00:10:44;;;;;;;33.83;7.13;;;7.60;99.90;;;6.71;88.67;99835.22;5054301;28;20252;-73
2023/03/13 00:13:17;;;;;;;27.27;6.43;;;7.60;99.90;;;6.77;88.43;99829.28;5053854;28;20666;-73
2023/03/13 00:15:49;;;;;;;29.80;6.97;;;7.60;99.90;;;6.73;88.64;99833.25;5053855;28;20586;-73
2023/03/13 00:18:22;;;;;;;30.03;5.90;;;7.60;99.90;;;6.69;88.49;99824.72;5054427;28;20190;-73
2023/03/13 00:20:58;;;;;;;29.33;6.33;;;7.60;99.90;;;6.52;88.89;99823.81;5053808;28;20720;-73
2023/03/13 00:23:30;;;;;;;22.73;5.27;;;7.40;99.90;;;6.46;89.55;99820.94;5053655;28;20206;-73
2023/03/13 00:26:04;;;;;;;26.50;5.77;;;7.30;99.90;;;6.35;89.95;99811.41;5054028;28;20190;-73
2023/03/13 00:28:38;;;;;;;29.90;6.17;;;7.20;99.90;;;6.46;89.15;99811.16;5053669;28;20592;-73
2023/03/13 00:31:13;;;;;;;23.30;6.47;;;7.30;99.90;;;6.44;88.99;99813.09;5053942;28;20197;-73
2023/03/13 00:33:50;;;;;;;28.20;6.40;;;7.30;99.90;;;6.42;89.10;99806.28;5053868;28;20260;-73
2023/03/13 00:36:25;;;;;;;31.53;6.63;;;7.30;99.90;;;6.48;88.87;99806.50;5053847;28;20197;-74
2023/03/13 00:38:58;;;;;;;23.70;5.67;;;7.40;99.90;;;6.48;88.65;99806.50;5053834;28;20193;-74
2023/03/13 00:41:33;;;;;;;22.23;5.83;;;7.30;99.90;;;6.56;88.16;99795.91;5053806;28;20186;-74
2023/03/13 00:44:05;;;;;;;22.40;6.03;;;7.40;99.90;;;6.54;87.88;99787.25;5053820;28;20229;-73
2023/03/13 00:46:37;;;;;;;23.47;5.87;;;7.40;99.90;;;6.69;86.86;99789.31;5053768;28;20194;-73
2023/03/13 00:49:10;;;;;;;19.77;6.00;;;7.50;99.90;;;6.62;86.97;99781.97;5053374;28;20194;-74
2023/03/13 00:51:42;;;;;;;24.33;5.73;;;7.50;99.90;;;6.70;86.41;99780.34;5053693;28;20202;-73
2023/03/13 00:54:14;;;;;;;26.73;6.03;;;7.50;99.90;;;6.58;87.15;99777.13;5053525;28;20218;-73
2023/03/13 00:56:46;;;;;;;18.43;5.03;;;7.50;99.90;;;6.68;86.59;99779.69;5053317;28;20572;-73
2023/03/13 00:59:19;;;;;;;31.27;7.23;;;7.50;99.90;;;6.69;86.26;99773.38;5053572;28;20240;-73
2023/03/13 01:01:51;;;;;;;22.93;5.50;;;7.50;99.90;;;6.73;85.99;99775.56;5053483;28;20197;-73
2023/03/13 01:04:24;;;;;;;23.63;6.63;;;7.60;99.90;;;6.71;86.19;99771.41;5053208;28;20605;-73
2023/03/13 01:06:56;;;;;;;24.10;5.60;;;7.50;99.90;;;6.64;86.34;99766.69;5053439;28;20186;-73
2023/03/13 01:09:27;;;;;;;28.33;6.53;;;7.50;99.90;;;6.63;86.19;99757.06;5053126;28;20643;-73
2023/03/13 01:11:59;;;;;;;30.77;6.43;;;7.50;99.90;;;6.81;85.31;99759.63;5053440;28;20601;-73
2023/03/13 01:14:32;;;;;;;21.70;5.03;;;7.70;99.90;;;6.77;85.13;99755.63;5052994;28;20701;-73
2023/03/13 01:17:04;;;;;;;23.10;5.73;;;7.60;99.90;;;6.76;85.34;99747.78;5053035;28;20565;-73
2023/03/13 01:19:38;;;;;;;28.53;5.40;;;7.60;99.90;;;6.87;84.74;99753.66;5055138;28;20197;-73
2023/03/13 01:22:11;;;;;;;21.07;5.50;;;7.70;99.90;;;6.76;84.93;99743.31;5057511;28;20186;-74
2023/03/13 01:24:43;;;;;;;25.67;5.60;;;7.70;99.90;;;6.75;85.12;99735.47;5057687;28;20667;-74
2023/03/13 01:27:15;;;;;;;21.90;5.67;;;7.70;99.90;;;6.83;84.69;99732.84;5057094;28;20190;-73
2023/03/13 01:29:47;;;;;;;21.03;5.07;;;7.70;99.90;;;6.91;84.50;99730.25;5057344;28;20198;-74
2023/03/13 01:32:19;;;;;;;23.47;5.50;;;7.70;99.90;;;7.06;83.79;99733.94;5057319;28;20190;-74
2023/03/13 01:34:52;;;;;;;21.07;5.30;;;7.90;99.90;;;7.18;83.19;99732.66;5057655;28;20271;-73
2023/03/13 01:37:24;;;;;;;20.80;5.40;;;8.00;99.90;;;7.20;83.21;99720.00;5057215;28;20608;-73
2023/03/13 01:39:56;;;;;;;21.60;5.63;;;8.00;99.90;;;7.18;83.04;99711.34;5057170;28;20190;-74
2023/03/13 01:42:27;;;;;;;24.27;5.60;;;8.00;99.90;;;7.11;83.45;99713.84;5057125;28;20213;-74
2023/03/13 01:45:00;;;;;;;30.10;6.13;;;8.00;99.90;;;7.16;83.47;99702.66;5057028;28;20238;-74
2023/03/13 01:47:32;;;;;;;24.53;5.53;;;8.00;99.90;;;7.18;83.28;99700.69;5057318;28;20197;-74
2023/03/13 01:50:06;;;;;;;21.50;5.57;;;8.00;99.90;;;7.11;83.26;99699.69;5057530;28;20205;-74
2023/03/13 01:52:38;;;;;;;22.53;5.40;;;8.00;99.90;;;7.09;83.93;99699.84;5056940;28;20198;-74
2023/03/13 01:55:15;;;;;;;24.43;5.37;;;7.90;99.90;;;7.02;84.46;99684.72;5056830;28;20222;-73
2023/03/13 01:57:52;;;;;;;20.13;5.00;;;7.90;99.90;;;7.01;84.47;99688.34;5056733;28;20193;-74
2023/03/13 02:00:30;;;;;;;19.07;5.97;;;7.80;99.90;;;7.14;83.88;99670.06;5056594;28;20201;-73
2023/03/13 02:03:08;;;;;;;19.00;5.77;;;7.90;99.90;;;7.21;83.77;99672.91;5056200;28;20559;-74
2023/03/13 02:05:44;;;;;;;23.80;5.93;;;8.00;99.90;;;7.16;83.96;99657.41;5056205;28;20704;-74
2023/03/13 02:08:21;;;;;;;20.03;5.97;;;8.00;99.90;;;7.04;84.55;99650.78;5056109;28;20646;-73
2023/03/13 02:11:02;;;;;;;21.60;5.13;;;7.90;99.90;;;6.92;85.62;99644.91;5056465;28;20565;-74
2023/03/13 02:13:36;;;;;;;25.97;5.70;;;7.80;99.90;;;6.86;86.36;99648.25;5056426;28;20198;-74
2023/03/13 02:16:10;;;;;;;24.10;5.20;;;7.70;99.90;;;6.86;86.57;99631.44;5056338;28;20240;-74
2023/03/13 02:18:42;;;;;;;25.80;5.17;;;7.70;99.90;;;6.84;87.02;99628.13;5056479;28;20190;-74
2023/03/13 02:21:21;;;;;;;26.70;5.97;;;7.60;99.90;;;6.76;87.36;99630.75;5056422;28;20234;-74
2023/03/13 02:24:02;;;;;;;23.23;5.40;;;7.60;99.90;;;6.75;87.80;99621.09;5056157;28;20291;-74
2023/03/13 02:26:35;;;;;;;21.30;5.40;;;7.60;99.90;;;6.73;87.85;99621.28;5056009;28;20198;-73
2023/03/13 02:29:08;;;;;;;27.30;6.10;;;7.50;99.90;;;6.76;87.83;99605.00;5056274;28;20190;-74
2023/03/13 02:31:40;;;;;;;28.23;6.87;;;7.60;99.90;;;6.73;87.87;99609.81;5054927;28;20198;-74
2023/03/13 02:34:14;;;;;;;25.97;5.70;;;7.60;99.90;;;6.71;88.45;99601.16;5056090;28;20222;-74
2023/03/13 02:36:47;;;;;;;19.83;4.97;;;7.50;99.90;;;6.68;88.30;99593.50;5056119;28;20206;-74
2023/03/13 02:39:23;;;;;;;23.97;4.93;;;7.50;99.90;;;6.61;88.43;99598.63;5055804;28;20642;-74
2023/03/13 02:41:59;;;;;;;20.20;5.27;;;7.40;99.90;;;6.56;88.99;99583.19;5056008;28;20186;-74
2023/03/13 02:44:37;;;;;;;23.47;5.10;;;7.40;99.90;;;6.53;89.29;99577.34;5055541;28;20607;-74
2023/03/13 02:47:09;;;;;;;21.93;5.33;;;7.30;99.90;;;6.48;89.38;99585.81;5055943;28;20201;-74
2023/03/13 02:49:41;;;;;;;18.20;5.57;;;7.30;99.90;;;6.45;89.98;99586.13;5055897;28;20190;-74
2023/03/13 02:52:19;;;;;;;19.80;5.80;;;7.30;99.90;;;6.42;90.13;99564.34;5055870;28;20198;-74
2023/03/13 02:54:57;;;;;;;23.90;5.33;;;7.30;99.90;;;6.41;90.35;99565.34;5055715;28;20589;-74
2023/03/13 02:57:30;;;;;;;22.00;5.20;;;7.30;99.90;;;6.40;90.12;99551.25;5055940;28;20225;-74
2023/03/13 03:00:03;;;;;;;20.87;5.23;;;7.20;99.90;;;6.40;90.24;99551.25;5055683;28;20197;-74
2023/03/13 03:02:35;;;;;;;16.77;4.80;;;7.20;99.90;;;6.40;90.22;99535.28;5055637;28;20190;-74
2023/03/13 03:05:08;;;;;;;22.20;5.27;;;7.20;99.90;;;6.40;90.45;99524.66;5055395;28;20234;-75
2023/03/13 03:07:40;;;;;;;21.03;5.20;;;7.30;99.90;;;6.39;90.31;99514.19;5055568;28;20190;-75
2023/03/13 03:10:13;;;;;;;25.37;5.80;;;7.30;99.90;;;6.39;90.63;99512.34;5055732;28;20191;-74
2023/03/13 03:12:46;;;;;;;23.37;5.20;;;7.20;99.90;;;6.42;90.41;99501.38;5055441;28;20199;-74
2023/03/13 03:15:18;;;;;;;21.47;5.33;;;7.30;99.90;;;6.39;90.09;99493.75;5054963;28;20230;-74
2023/03/13 03:17:50;;;;;;;18.77;4.93;;;7.20;99.90;;;6.42;90.07;99488.09;5055045;28;20631;-74
2023/03/13 03:20:21;;;;;;;14.50;4.80;;;7.30;99.90;;;6.44;90.89;99475.47;5055324;28;20199;-74
2023/03/13 03:22:53;;;;;;;19.27;4.93;;;7.30;99.90;;;6.44;90.45;99469.31;5055207;28;20663;-74
2023/03/13 03:25:25;;;;;;;18.33;5.03;;;7.30;99.90;;;6.44;90.40;99462.16;5055041;28;20230;-74
2023/03/13 03:27:58;;;;;;;27.03;5.27;;;7.30;99.90;;;6.42;90.88;99456.19;5055121;28;20194;-74
2023/03/13 03:30:30;;;;;;;22.70;5.37;;;7.30;99.90;;;6.41;90.64;99451.88;5055107;28;20194;-74
2023/03/13 03:33:04;;;;;;;21.40;6.00;;;7.20;99.90;;;6.41;90.59;99438.56;5055018;28;20194;-74
2023/03/13 03:35:37;;;;;;;21.63;5.40;;;7.20;99.90;;;6.39;91.01;99443.25;5054865;28;20279;-74
2023/03/13 03:38:09;;;;;;;21.83;5.50;;;7.30;99.90;;;6.39;90.94;99432.59;5054987;28;20195;-74
2023/03/13 03:40:41;;;;;;;23.97;4.37;;;7.20;99.90;;;6.39;90.98;99426.44;5054657;28;20190;-74
2023/03/13 03:43:14;;;;;;;15.70;4.53;;;7.20;99.90;;;6.39;91.26;99424.63;5054538;28;20194;-74
2023/03/13 03:45:46;;;;;;;26.50;5.33;;;7.20;99.90;;;6.39;91.10;99415.81;5054719;28;20620;-74
2023/03/13 03:48:18;;;;;;;19.37;4.80;;;7.30;99.90;;;6.39;91.46;99410.50;5054509;28;20192;-74
2023/03/13 03:50:50;;;;;;;23.83;5.07;;;7.30;99.90;;;6.38;91.18;99408.84;5054661;28;20186;-74
2023/03/13 03:53:22;;;;;;;21.13;5.33;;;7.20;99.90;;;6.37;91.53;99397.38;5054652;28;20190;-74
2023/03/13 03:55:53;;;;;;;18.33;5.03;;;7.20;99.90;;;6.35;91.49;99394.06;5054821;28;20256;-74
2023/03/13 03:58:26;;;;;;;22.33;5.70;;;7.20;99.90;;;6.35;91.43;99380.75;5054685;28;20210;-74
2023/03/13 04:01:00;;;;;;;21.83;5.70;;;7.20;99.90;;;6.34;91.65;99380.91;5054131;28;20542;-74
2023/03/13 04:03:32;;;;;;;20.27;4.80;;;7.20;99.90;;;6.33;91.59;99374.78;5054622;28;20198;-73
2023/03/13 04:06:05;;;;;;;22.67;5.57;;;7.20;99.90;;;6.33;92.02;99374.78;5054404;28;20619;-74
2023/03/13 04:08:37;;;;;;;23.33;5.37;;;7.20;99.90;;;6.33;91.72;99372.13;5054364;28;20225;-74
2023/03/13 04:11:09;;;;;;;20.03;4.80;;;7.20;99.90;;;6.32;91.89;99370.47;5054309;28;20195;-74
2023/03/13 04:13:42;;;;;;;19.73;4.87;;;7.10;99.90;;;6.33;92.05;99360.66;5054237;28;20230;-74
2023/03/13 04:16:14;;;;;;;20.70;5.23;;;7.20;99.90;;;6.36;91.85;99358.50;5054015;28;20213;-74
2023/03/13 04:18:46;;;;;;;22.00;5.20;;;7.20;99.90;;;6.35;91.86;99354.19;5054227;28;20244;-74
2023/03/13 04:21:18;;;;;;;18.43;5.10;;;7.20;99.90;;;6.37;92.13;99362.81;5054156;28;20562;-74
2023/03/13 04:23:50;;;;;;;20.07;4.77;;;7.20;99.90;;;6.37;92.25;99365.47;5054049;28;20242;-74
2023/03/13 04:26:22;;;;;;;24.93;5.47;;;7.20;99.90;;;6.38;92.28;99366.28;5053968;28;20218;-74
2023/03/13 04:28:55;;;;;;;20.03;5.17;;;7.20;99.90;;;6.38;92.56;99351.19;5053696;28;20601;-74
2023/03/13 04:31:27;;;;;;;21.23;4.53;;;7.20;99.90;;;6.36;92.65;99350.53;5053976;28;20190;-74
2023/03/13 04:33:59;;;;;;;19.20;4.83;;;7.20;99.90;;;6.35;92.77;99324.09;5053505;28;20713;-74
2023/03/13 04:36:31;;;;;;;14.40;4.73;;;7.20;99.90;;;6.34;92.83;99327.75;5053868;28;20187;-74
2023/03/13 04:39:03;;;;;;;17.73;4.80;;;7.20;99.90;;;6.32;93.22;99314.66;5053600;28;20247;-74
2023/03/13 04:41:34;;;;;;;22.50;5.37;;;7.10;99.90;;;6.33;93.33;99311.00;5053851;28;20199;-74
2023/03/13 04:44:07;;;;;;;24.40;5.30;;;7.10;99.90;;;6.32;93.97;99304.03;5053385;28;20722;-74
2023/03/13 04:46:40;;;;;;;19.57;5.27;;;7.10;99.90;;;6.32;93.75;99309.34;5053724;28;20214;-74
2023/03/13 04:49:13;;;;;;;20.03;6.03;;;7.10;99.90;;;6.35;93.94;99302.84;5053419;28;20674;-75
2023/03/13 04:51:45;;;;;;;21.17;5.50;;;7.20;99.90;;;6.47;94.27;99304.97;5053686;28;20197;-74
2023/03/13 04:54:16;;;;;;;23.97;4.77;;;7.30;99.90;;;6.52;94.53;99289.34;5052810;28;20233;-74
2023/03/13 04:56:48;;;;;;;20.30;5.53;;;7.30;99.90;;;6.54;94.41;99282.03;5053307;28;20643;-74
2023/03/13 04:59:21;;;;;;;18.97;4.27;;;7.40;99.90;;;6.54;94.39;99276.72;5053546;28;20197;-74
2023/03/13 05:01:53;;;;;;;19.97;4.77;;;7.40;99.90;;;6.64;95.19;99272.03;5053524;28;20190;-74
2023/03/13 05:04:25;;;;;;;22.83;4.97;;;7.40;99.90;;;6.64;94.70;99258.72;5053121;28;20226;-74
2023/03/13 05:06:57;;;;;;;17.03;5.23;;;7.50;99.90;;;6.62;94.63;99263.41;5053108;28;20213;-74
2023/03/13 05:09:29;;;;;;;21.00;4.80;;;7.50;99.90;;;6.72;95.04;99241.09;5053143;28;20635;-74
2023/03/13 05:12:01;;;;;;;23.20;5.23;;;7.50;99.90;;;6.69;95.09;99236.13;5053983;28;20194;-74
2023/03/13 05:14:34;;;;;;;23.80;5.03;;;7.50;99.90;;;6.70;95.39;99224.50;5053267;28;20230;-74
2023/03/13 05:17:06;;;;;;;20.13;5.37;;;7.60;99.90;;;6.69;95.47;99220.16;5053458;28;20197;-74
2023/03/13 05:19:38;;;;;;;21.03;5.60;;;7.50;99.90;;;6.72;96.08;99225.97;5053391;28;20201;-75
2023/03/13 05:22:10;;;;;;;22.97;5.37;;;7.60;99.90;;;6.80;96.23;99227.78;5053011;28;20190;-75
2023/03/13 05:24:42;;;;;;;23.13;5.83;;;7.60;99.90;;;6.87;96.22;99218.94;5052872;28;20714;-74
2023/03/13 05:27:14;;;;;;;20.73;5.23;;;7.70;99.90;;;6.87;96.13;99223.41;5053194;28;20190;-74
2023/03/13 05:29:47;;;;;;;17.03;5.37;;;7.70;99.90;;;6.94;96.56;99229.69;5053242;28;20190;-74
2023/03/13 05:32:20;;;;;;;19.07;4.80;;;7.70;99.90;;;6.89;96.12;99224.06;5053814;28;20191;-74
2023/03/13 05:34:52;;;;;;;18.53;4.57;;;7.70;99.90;;;6.98;96.72;99220.38;5053998;28;20222;-74
2023/03/13 05:37:24;;;;;;;22.13;5.07;;;7.80;99.90;;;6.99;96.38;99214.88;5053096;28;20193;-74
2023/03/13 05:39:56;;;;;;;24.53;6.03;;;7.80;99.90;;;6.99;96.69;99206.03;5053170;28;20229;-74
2023/03/13 05:42:28;;;;;;;20.57;4.97;;;7.80;99.90;;;7.10;96.72;99198.50;5052940;28;20190;-74
2023/03/13 05:45:01;;;;;;;20.53;4.87;;;7.90;99.90;;;7.07;96.66;99203.34;5052977;28;20237;-74
2023/03/13 05:47:33;;;;;;;17.60;5.20;;;7.90;99.90;;;7.15;96.63;99192.66;5053148;28;20194;-74
2023/03/13 05:50:05;;;;;;;14.03;4.17;;;8.00;99.90;;;7.11;96.79;99184.22;5053139;28;20187;-74
2023/03/13 05:52:37;;;;;;;20.37;4.87;;;7.90;99.90;;;7.16;97.25;99186.31;5052843;28;20564;-74
2023/03/13 05:55:09;;;;;;;17.33;3.93;;;8.00;99.90;;;7.12;97.07;99185.84;5052972;28;20222;-74
2023/03/13 05:57:43;;;;;;;21.90;4.40;;;8.00;99.90;;;7.12;96.99;99172.53;5053028;28;20195;-74
2023/03/13 06:00:19;;;;;;;17.00;4.00;;;7.90;99.90;;;7.21;96.86;99170.66;5052709;28;20701;-74
2023/03/13 06:02:51;;;;;;;15.53;4.13;;;8.00;99.90;;;7.22;96.74;99175.00;5052985;28;20190;-74
2023/03/13 06:05:23;;;;;;;13.87;4.23;;;8.10;99.90;;;7.27;96.91;99172.59;5054937;28;20608;-74
2023/03/13 06:07:55;;;;;;;20.20;4.90;;;8.10;99.90;;;7.36;96.60;99158.25;5056646;28;20639;-74
2023/03/13 06:10:27;;;;;;;13.63;4.10;;;8.10;99.90;;;7.38;96.76;99155.41;5056668;28;20195;-74
2023/03/13 06:12:59;;;;;;;12.03;4.07;;;8.20;99.90;;;7.34;96.22;99156.75;5056587;28;20191;-74
2023/03/13 06:15:57;;;;;;;16.23;4.43;;;8.20;99.90;;;7.51;95.50;99175.09;5056356;28;20236;-73
2023/03/13 06:18:29;;;;;;;18.20;4.53;;;8.40;99.90;;;7.47;95.32;99163.13;5056412;28;20632;-74
2023/03/13 06:21:04;;;;;;;17.50;4.27;;;8.30;99.90;;;7.50;95.88;99162.78;5056388;28;20622;-74
2023/03/13 06:23:36;;;;;;;18.17;4.20;;;8.30;99.90;;;7.53;95.49;99158.94;5056000;28;20221;-74
2023/03/13 06:26:09;;;;;;;17.17;3.60;;;8.30;99.90;;;7.63;95.21;99160.34;5056248;28;20206;-74
2023/03/13 06:28:41;;;;;;;15.40;4.47;;;8.50;99.90;;;7.55;95.17;99160.41;5055970;28;20661;-74
2023/03/13 06:31:14;;;;;;;15.40;4.40;;;8.40;99.90;;;7.55;96.09;99160.41;5056275;28;20186;-74
2023/03/13 06:33:46;;;;;;;12.63;4.23;;;8.40;99.90;;;7.56;96.37;99155.91;5056379;28;20226;-74
2023/03/13 06:36:20;;;;;;;11.23;4.20;;;8.40;99.90;;;7.59;97.18;99153.72;5055679;28;20658;-74
2023/03/13 06:38:52;;;;;;;17.53;4.77;;;8.30;99.90;;;7.59;97.29;99151.06;5055978;28;20233;-74
2023/03/13 06:41:24;;;;;;;11.63;3.97;;;8.40;99.90;;;7.62;97.42;99140.06;5056085;28;20194;-74
2023/03/13 06:43:55;;;;;;;12.87;4.77;;;8.40;99.90;;;7.64;97.39;99145.19;5055909;28;20226;-74
2023/03/13 06:46:30;;;;;;;16.57;4.33;;;8.50;99.90;;;7.65;97.61;99145.00;5055506;28;20678;-74
2023/03/13 06:49:04;;;;;;;14.13;4.70;;;8.40;99.90;;;7.71;97.41;99137.28;5055708;28;20193;-74
2023/03/13 06:51:36;;;;;;;18.33;4.50;;;8.50;99.90;;;7.72;97.17;99144.28;5055706;28;20193;-74
2023/03/13 06:54:08;;;;;;;13.63;4.17;;;8.50;99.90;;;7.75;97.43;99138.59;5055265;28;20783;-73
2023/03/13 06:56:40;;;;;;;13.07;3.90;;;8.50;99.90;;;7.78;96.81;99131.06;5055897;28;20197;-74
2023/03/13 06:59:11;;;;;;;13.07;3.90;;;8.60;99.90;;;7.79;97.51;99131.91;5055607;28;20194;-74
2023/03/13 07:01:45;;;;;;;12.20;3.70;;;8.60;99.90;;;7.79;96.97;99131.91;5055523;28;20198;-74
2023/03/13 07:04:17;;;;;;;12.03;4.20;;;8.60;99.90;;;7.81;97.16;99124.56;5055495;28;20233;-74
2023/03/13 07:06:50;;;;;;;12.60;3.57;;;8.60;99.90;;;7.84;97.79;99121.53;5055133;28;20728;-74
2023/03/13 07:09:22;;;;;;;11.57;3.90;;;8.60;99.90;;;7.87;97.34;99110.50;5055431;28;20202;-74
2023/03/13 07:11:54;;;;;;;9.13;3.80;;;8.70;99.90;;;7.91;97.29;99125.94;5055394;28;20201;-74
2023/03/13 07:14:26;;;;;;;16.97;3.63;;;8.70;99.90;;;7.97;97.39;99122.56;5055234;28;20287;-74
2023/03/13 07:17:01;;;;;;;9.83;3.60;;;8.80;99.90;;;7.99;97.15;99111.69;5054482;28;20190;-73
2023/03/13 07:19:33;;;;;;;9.07;2.87;;;8.80;99.90;;;8.04;96.97;99123.47;5055473;28;20194;-74
2023/03/13 07:22:04;;;;;;;8.10;3.07;;;8.80;99.90;;;8.09;96.80;99120.25;5055081;28;20194;-74
2023/03/13 07:24:36;;;;;;;9.13;3.10;;;8.90;99.90;;;8.24;96.16;99128.25;5055020;28;20225;-74
2023/03/13 07:27:08;;;;;;;6.77;3.13;;;9.00;99.90;;;8.18;96.12;99119.16;5055002;28;20260;-74
2023/03/13 07:29:40;;;;;;;8.40;3.17;;;9.00;99.90;;;8.39;96.52;99111.25;5055020;28;20232;-74
2023/03/13 07:32:14;;;;;;;7.77;2.40;;;9.10;99.90;;;8.33;96.56;99112.00;5054963;28;20232;-74
2023/03/13 07:34:46;;;;;;;8.63;2.77;;;9.10;99.90;;;8.47;96.27;99123.66;5054509;28;20648;-73
2023/03/13 07:37:19;;;;;;;3.53;2.30;;;9.20;99.90;;;8.53;95.82;99115.75;5054890;28;20194;-74
2023/03/13 07:39:51;;;;;;;5.80;2.47;;;9.30;99.90;;;8.61;94.96;99117.47;5054795;28;20187;-74
2023/03/13 07:42:23;;;;;;;5.20;2.83;;;9.40;99.90;;;8.60;95.12;99107.81;5054726;28;20194;-73
2023/03/13 07:44:55;;;;;;;9.00;2.53;;;9.40;99.90;;;8.70;95.25;99107.53;5054635;28;20264;-74
2023/03/13 07:47:28;;;;;;;3.70;2.50;;;9.40;99.90;;;8.73;95.65;99116.00;5054452;28;20670;-74
2023/03/13 07:49:59;;;;;;;3.50;2.77;;;9.50;99.90;;;8.87;95.04;99116.97;5054844;28;20186;-74
2023/03/13 07:52:31;;;;;;;8.30;2.50;;;9.60;99.90;;;8.91;95.10;99120.88;5054436;28;20653;-74
2023/03/13 07:55:03;;;;;;;5.83;2.50;;;9.60;99.90;;;8.89;95.10;99128.28;5054596;28;20248;-74
2023/03/13 07:57:35;;;;;;;6.50;3.07;;;9.60;99.90;;;8.91;95.13;99128.91;5054638;28;20190;-74
2023/03/13 08:00:15;;;;;;;5.30;2.80;;;9.70;99.90;;;8.94;95.20;99125.84;5054834;28;20199;-65
2023/03/13 08:02:48;;;;;;;4.13;3.17;;;9.70;99.90;;;9.04;95.70;99132.53;5054444;28;20562;-73
2023/03/13 08:05:20;;;;;;;6.30;3.03;;;9.80;99.90;;;9.14;95.68;99138.38;5054375;28;20283;-73
2023/03/13 08:07:52;;;;;;;4.60;2.63;;;9.90;99.90;;;9.18;95.76;99130.81;5054197;28;20210;-73
2023/03/13 08:10:24;;;;;;;6.30;2.70;;;9.90;99.90;;;9.25;96.01;99128.22;5053973;28;20673;-73
2023/03/13 08:12:56;;;;;;;3.83;2.90;;;9.90;99.90;;;9.23;95.41;99136.44;5054173;28;20630;-73
2023/03/13 08:15:28;;;;;;;3.77;2.53;;;10.00;99.90;;;9.20;95.50;99131.47;5054031;28;20230;-73
2023/03/13 08:18:01;;;;;;;5.33;2.70;;;10.00;99.90;;;9.27;96.23;99127.03;5054230;28;20221;-73
2023/03/13 08:20:33;;;;;;;4.50;2.60;;;10.00;99.90;;;9.44;95.16;99127.59;5053849;28;20545;-74
2023/03/13 08:23:05;;;;;;;3.53;2.50;;;10.10;99.90;;;9.55;94.38;99119.06;5053829;28;20194;-74
2023/03/13 08:25:37;;;;;;;3.27;2.50;;;10.30;99.90;;;9.49;94.19;99123.31;5053699;28;20721;-74
2023/03/13 08:28:10;;;;;;;4.37;2.57;;;10.30;99.90;;;9.50;95.30;99133.00;5053606;28;20555;-73
2023/03/13 08:30:42;;;;;;;4.10;2.37;;;10.30;99.90;;;9.57;94.56;99117.00;5053981;28;20190;-73
2023/03/13 08:33:16;;;;;;;4.93;2.40;;;10.30;99.90;;;9.49;95.18;99120.63;5053943;28;20213;-74
2023/03/13 08:35:47;;;;;;;5.27;2.50;;;10.20;99.90;;;9.46;95.89;99115.69;5053839;28;20256;-73
2023/03/13 08:38:19;;;;;;;3.43;2.30;;;10.20;99.90;;;9.58;95.29;99124.84;5053830;28;20248;-73
2023/03/13 08:40:55;;;;;;;2.77;2.30;;;10.30;99.90;;;9.56;94.97;99108.16;5053814;28;20201;-73
2023/03/13 08:43:27;;;;;;;5.50;2.27;;;10.30;99.90;;;9.59;95.02;99099.75;5053688;28;20197;-73
2023/03/13 08:46:01;;;;;;;3.93;2.57;;;10.40;99.90;;;9.57;94.84;99112.50;5053438;28;20198;-70
2023/03/13 08:48:34;;;;;;;4.63;3.20;;;10.30;99.90;;;9.61;94.83;99108.44;5053206;28;20638;-73
2023/03/13 08:51:09;;;;;;;5.27;2.90;;;10.40;99.90;;;9.63;94.97;99101.03;5053937;28;20214;-73
2023/03/13 08:53:43;;;;;;;5.47;2.80;;;10.40;99.90;;;9.69;94.70;99105.59;5053696;28;20229;-73
2023/03/13 08:56:18;;;;;;;5.50;3.10;;;10.50;99.90;;;9.76;94.60;99104.84;5053425;28;20187;-74
2023/03/13 08:58:55;;;;;;;4.27;2.80;;;10.50;99.90;;;9.75;93.58;99104.00;5053385;28;20192;-73
2023/03/13 09:01:30;;;;;;;5.87;2.90;;;10.50;99.90;;;9.74;93.45;99101.53;5053614;28;20205;-73
2023/03/13 09:04:05;;;;;;;4.50;3.40;;;10.50;99.90;;;9.79;93.70;99088.41;5053419;28;20225;-72
2023/03/13 09:06:38;;;;;;;4.63;3.40;;;10.50;99.90;;;9.87;93.31;99090.91;5053493;28;20281;-73
2023/03/13 09:09:12;;;;;;;5.97;3.17;;;10.60;99.90;;;9.81;93.03;99086.34;5053729;28;20206;-73
2023/03/13 09:11:44;;;;;;;4.53;2.97;;;10.60;99.90;;;9.83;93.63;99087.00;5053171;28;20195;-73
2023/03/13 09:14:17;;;;;;;4.30;2.67;;;10.60;99.90;;;9.90;92.73;99085.16;5053343;28;20233;-73
2023/03/13 09:16:49;;;;;;;3.80;2.70;;;10.70;99.90;;;9.91;92.50;99092.19;5053076;28;20218;-73
2023/03/13 09:19:22;;;;;;;6.13;2.97;;;10.60;99.90;;;9.94;92.54;99081.09;5053138;28;20201;-73
2023/03/13 09:21:55;;;;;;;3.97;2.80;;;10.70;99.90;;;10.03;91.85;99079.94;5053326;28;20183;-72
2023/03/13 09:24:29;;;;;;;5.93;3.00;;;10.80;99.90;;;10.12;91.04;99086.75;5053279;28;20237;-73
2023/03/13 09:27:02;;;;;;;5.73;3.33;;;10.90;99.90;;;10.11;91.43;99066.38;5052918;28;20669;-73
2023/03/13 09:29:38;;;;;;;3.70;2.40;;;10.80;99.90;;;10.13;91.46;99065.19;5052984;28;20665;-73
2023/03/13 09:32:13;;;;;;;3.80;2.77;;;10.80;99.90;;;10.19;90.88;99055.56;5052943;28;20563;-73
2023/03/13 09:34:46;;;;;;;4.27;2.50;;;10.90;99.90;;;10.23;90.74;99047.97;5053256;28;20234;-72
2023/03/13 09:37:18;;;;;;;3.80;2.50;;;10.90;99.90;;;10.28;90.18;99059.72;5053207;28;20201;-74
2023/03/13 09:39:51;;;;;;;5.10;2.47;;;11.00;99.90;;;10.33;90.18;99049.25;5053619;28;20220;-74
2023/03/13 09:42:32;;;;;;;3.43;2.27;;;11.10;99.90;;;10.51;89.20;99049.50;5056909;28;20637;-73
2023/03/13 09:45:13;;;;;;;4.07;2.20;;;11.20;99.90;;;10.47;89.62;99037.56;5057356;28;20233;-73
2023/03/13 09:47:50;;;;;;;3.23;2.67;;;11.20;99.90;;;10.58;88.70;99045.00;5057067;28;20224;-72
2023/03/13 09:50:31;;;;;;;2.30;2.00;;;11.30;99.90;;;10.68;88.50;99031.25;5057046;28;20194;-73
2023/03/13 09:53:13;;;;;;;3.53;2.77;;;11.40;99.90;;;10.64;88.53;99030.84;5057046;28;20191;-73
2023/03/13 09:55:47;;;;;;;3.33;2.57;;;11.40;99.90;;;10.77;88.22;99035.38;5056946;28;20197;-72
2023/03/13 09:58:26;;;;;;;3.40;2.17;;;11.50;99.90;;;10.78;88.22;99029.00;5056886;28;20197;-72
2023/03/13 10:01:05;;;;;;;4.37;2.50;;;11.50;99.90;;;10.80;88.71;99016.22;5056844;28;20224;-72
2023/03/13 10:03:44;;;;;;;4.07;2.83;;;11.50;99.90;;;10.89;87.97;99024.91;5056746;28;20229;-72
2023/03/13 10:06:22;;;;;;;3.57;2.10;;;11.60;99.90;;;11.06;86.72;99034.19;5057052;28;20224;-72
2023/03/13 10:08:59;;;;;;;3.77;2.37;;;11.80;99.90;;;11.14;87.04;99017.91;5057035;28;20214;-73
2023/03/13 10:11:44;;;;;;;4.17;3.10;;;11.90;99.90;;;11.29;86.27;99023.91;5056486;28;20648;-72
2023/03/13 10:14:28;;;;;;;4.40;2.60;;;12.00;99.90;;;11.25;86.11;99029.88;5056767;28;20230;-72
2023/03/13 10:17:13;;;;;;;4.30;2.57;;;12.00;99.90;;;11.23;86.18;99038.13;5056785;28;20256;-72
2023/03/13 10:19:48;;;;;;;4.77;2.30;;;12.00;99.90;;;11.28;86.70;99035.66;5056218;28;20195;-72
2023/03/13 10:22:26;;;;;;;3.40;2.50;;;12.00;99.90;;;11.28;86.60;99034.81;5056591;28;20197;-72
2023/03/13 10:25:08;;;;;;;2.97;2.30;;;12.00;99.90;;;11.21;86.74;99032.13;5056049;28;20597;-72
2023/03/13 10:27:54;;;;;;;3.10;2.57;;;11.90;99.90;;;11.29;86.75;99033.78;5056272;28;20218;-73
2023/03/13 10:30:31;;;;;;;5.47;2.60;;;11.90;99.90;;;11.49;85.10;99021.22;5056001;28;20666;-72
2023/03/13 10:33:18;;;;;;;6.17;2.70;;;12.20;99.90;;;11.42;86.30;99034.63;5056267;28;20193;-72
2023/03/13 10:36:04;;;;;;;6.60;2.33;;;12.20;99.90;;;11.57;85.93;99037.09;5056457;28;20191;-72
2023/03/13 10:38:49;;;;;;;3.30;2.30;;;12.30;99.90;;;11.58;86.47;99041.38;5056109;28;20194;-72
2023/03/13 10:41:33;;;;;;;5.17;2.83;;;12.30;99.90;;;11.65;85.81;99024.28;5056133;28;20190;-72
2023/03/13 10:44:15;;;;;;;8.30;2.60;;;12.30;99.90;;;11.69;85.30;99030.03;5055992;28;20230;-72
2023/03/13 10:46:50;;;;;;;4.90;2.60;;;12.40;99.90;;;11.78;86.12;99028.00;5055979;28;20194;-72
2023/03/13 10:49:25;;;;;;;4.27;2.20;;;12.40;99.90;;;11.70;86.50;99047.78;5056048;28;20225;-72
2023/03/13 10:52:02;;;;;;;5.43;2.53;;;12.40;99.90;;;11.82;85.36;99034.56;5054687;28;20190;-72